Time;durP1;ratioP1;P1;durP2;ratioP2;P2;SDS_P1;SDS_P2;PMS_P1;PMS_P2;Temp;Humidity;BMP_temperature;BMP_pressure;BME280_temperature;BME280_humidity;BME280_pressure;Samples;Min_cycle;Max_cycle;Signal;HPM_P1;HPM_P2
2023/10/02 00:00:41;;;;;;;5.43;4.18;;;11.30;97.70;;;;;;5050775;28;20033;-85
2023/10/02 00:03:09;;;;;;;13.25;4.60;;;11.30;97.80;;;;;;5052426;28;20056;-85
2023/10/02 00:05:50;;;;;;;7.07;4.47;;;11.30;97.80;;;;;;5051780;28;20105;-86
2023/10/02 00:08:39;;;;;;;6.85;4.10;;;11.30;97.80;;;;;;5033406;28;20486;-85
2023/10/02 00:11:45;;;;;;;14.70;5.15;;;11.30;97.80;;;;;;5055315;28;20028;-84
2023/10/02 00:14:19;;;;;;;9.05;4.15;;;11.30;97.90;;;;;;5070477;28;20037;-85
2023/10/02 00:17:00;;;;;;;8.45;4.28;;;11.30;97.80;;;;;;5038523;28;20025;-86
2023/10/02 00:19:35;;;;;;;10.82;4.50;;;11.30;98.00;;;;;;5033415;28;20041;-85
2023/10/02 00:22:06;;;;;;;7.32;4.03;;;11.20;98.00;;;;;;5035772;28;20021;-85
2023/10/02 00:24:41;;;;;;;7.53;4.18;;;11.20;98.10;;;;;;5053332;28;20029;-86
2023/10/02 00:27:10;;;;;;;11.60;5.28;;;11.20;98.20;;;;;;5053144;28;20083;-84
2023/10/02 00:29:51;;;;;;;10.35;4.50;;;11.20;98.30;;;;;;5045495;28;20018;-84
2023/10/02 00:32:19;;;;;;;8.82;4.60;;;11.20;98.40;;;;;;5021775;28;20021;-84
2023/10/02 00:34:51;;;;;;;17.45;5.28;;;11.20;98.50;;;;;;5064752;28;20108;-84
2023/10/02 00:37:17;;;;;;;9.98;5.40;;;11.20;98.50;;;;;;5036230;28;20429;-85
2023/10/02 00:39:47;;;;;;;12.20;5.90;;;11.20;98.50;;;;;;5056962;28;20036;-84
2023/10/02 00:42:28;;;;;;;10.35;5.85;;;11.20;98.60;;;;;;5060225;28;20047;-85
2023/10/02 00:44:56;;;;;;;10.60;6.50;;;11.20;98.60;;;;;;5060201;28;20082;-85
2023/10/02 00:47:42;;;;;;;14.30;6.97;;;11.20;98.70;;;;;;5056743;28;20017;-85
2023/10/02 00:50:19;;;;;;;19.40;6.10;;;11.20;98.80;;;;;;5066361;28;20103;-85
2023/10/02 00:53:00;;;;;;;10.37;5.57;;;11.20;98.70;;;;;;5048600;28;20262;-85
2023/10/02 00:55:32;;;;;;;15.65;6.13;;;11.30;98.80;;;;;;5070322;28;20013;-85
2023/10/02 00:58:00;;;;;;;11.77;6.35;;;11.40;98.90;;;;;;5051154;28;20168;-85
2023/10/02 01:00:31;;;;;;;9.85;5.72;;;11.50;98.70;;;;;;5041222;28;20033;-86
2023/10/02 01:02:59;;;;;;;14.05;5.30;;;11.50;98.50;;;;;;5062480;28;20514;-84
2023/10/02 01:05:41;;;;;;;9.85;5.43;;;11.50;98.40;;;;;;5071450;28;20056;-85
2023/10/02 01:08:24;;;;;;;11.27;6.40;;;11.60;98.30;;;;;;5063193;28;20055;-84
2023/10/02 01:10:59;;;;;;;9.18;5.60;;;11.60;98.30;;;;;;5054140;28;20021;-86
2023/10/02 01:13:35;;;;;;;11.73;4.82;;;11.50;98.20;;;;;;5036178;28;20482;-85
2023/10/02 01:16:04;;;;;;;7.28;4.93;;;11.60;98.30;;;;;;5035257;28;20170;-85
2023/10/02 01:18:31;;;;;;;9.40;5.75;;;11.50;98.50;;;;;;5053343;28;20033;-84
2023/10/02 01:20:59;;;;;;;12.57;6.65;;;11.50;98.30;;;;;;5067293;28;20017;-85
2023/10/02 01:23:27;;;;;;;10.50;4.85;;;11.50;98.40;;;;;;5053913;28;20029;-84
2023/10/02 01:25:57;;;;;;;11.02;5.60;;;11.40;98.30;;;;;;5053546;28;20374;-84
2023/10/02 01:28:51;;;;;;;13.13;7.07;;;11.40;98.40;;;;;;5054000;28;20107;-87
2023/10/02 01:31:35;;;;;;;14.90;6.22;;;11.40;98.70;;;;;;5052660;28;20029;-85
2023/10/02 01:34:02;;;;;;;7.78;5.70;;;11.40;98.70;;;;;;5061266;28;20057;-85
2023/10/02 01:36:32;;;;;;;11.30;6.75;;;11.40;98.70;;;;;;5052963;28;20118;-85
2023/10/02 01:39:13;;;;;;;12.65;6.22;;;11.50;98.60;;;;;;5053252;28;20049;-85
2023/10/02 01:41:48;;;;;;;13.27;6.28;;;11.40;98.60;;;;;;5039332;28;20029;-85
2023/10/02 01:44:20;;;;;;;14.55;6.93;;;11.50;98.80;;;;;;5058489;28;20394;-83
2023/10/02 01:46:49;;;;;;;10.63;6.90;;;11.50;98.70;;;;;;5050392;28;20062;-83
2023/10/02 01:49:24;;;;;;;13.02;4.97;;;11.60;98.50;;;;;;5064854;28;20406;-84
2023/10/02 01:51:55;;;;;;;11.07;6.75;;;11.70;98.30;;;;;;5051057;28;20025;-83
2023/10/02 01:54:22;;;;;;;13.23;5.95;;;11.70;98.20;;;;;;5052243;28;20039;-84
2023/10/02 01:56:49;;;;;;;9.40;6.57;;;11.70;98.20;;;;;;5052022;28;20021;-83
2023/10/02 01:59:19;;;;;;;15.73;6.95;;;11.60;98.10;;;;;;5052179;28;20470;-84
2023/10/02 02:01:51;;;;;;;13.13;5.90;;;11.70;98.20;;;;;;5032981;28;20056;-84
2023/10/02 02:04:20;;;;;;;10.95;6.65;;;11.70;98.20;;;;;;5034687;28;20056;-85
2023/10/02 02:06:53;;;;;;;13.23;7.45;;;11.70;97.90;;;;;;5051718;28;20048;-83
2023/10/02 02:09:26;;;;;;;9.90;5.88;;;11.70;97.90;;;;;;5047642;28;20035;-84
2023/10/02 02:12:05;;;;;;;10.77;6.82;;;11.60;97.80;;;;;;5052069;28;20096;-84
2023/10/02 02:14:41;;;;;;;10.88;6.07;;;11.60;98.10;;;;;;5052692;28;20036;-84
2023/10/02 02:17:10;;;;;;;8.27;5.50;;;11.50;97.80;;;;;;5061518;28;20013;-84
2023/10/02 02:19:48;;;;;;;8.70;5.75;;;11.40;98.00;;;;;;5063567;28;20051;-83
2023/10/02 02:22:18;;;;;;;7.82;4.45;;;11.40;98.00;;;;;;5038399;28;20428;-84
2023/10/02 02:24:46;;;;;;;9.93;5.40;;;11.40;97.90;;;;;;5055369;28;20025;-85
2023/10/02 02:27:12;;;;;;;9.18;5.22;;;11.40;97.90;;;;;;5042886;28;20425;-85
2023/10/02 02:29:38;;;;;;;11.32;5.93;;;11.40;98.00;;;;;;5037169;28;20025;-84
2023/10/02 02:32:07;;;;;;;11.15;5.20;;;11.50;98.00;;;;;;5055388;28;20021;-85
2023/10/02 02:34:33;;;;;;;7.38;4.38;;;11.40;97.70;;;;;;5055345;28;20048;-86
2023/10/02 02:36:59;;;;;;;8.52;5.15;;;11.40;97.80;;;;;;5055378;28;20481;-86
2023/10/02 02:39:27;;;;;;;15.82;5.65;;;11.40;97.80;;;;;;5053295;28;20041;-85
2023/10/02 02:44:45;;;;;;;9.30;5.20;;;11.40;98.00;;;;;;5055547;28;20032;-84
2023/10/02 02:47:20;;;;;;;7.38;5.38;;;11.40;98.00;;;;;;5054802;28;20057;-84
2023/10/02 02:49:48;;;;;;;7.32;4.22;;;11.40;98.20;;;;;;5037741;28;20495;-84
2023/10/02 02:52:33;;;;;;;11.25;5.78;;;11.40;97.80;;;;;;5055309;28;20017;-84
2023/10/02 02:55:05;;;;;;;8.77;4.90;;;11.30;97.60;;;;;;5036294;28;20021;-83
2023/10/02 02:57:33;;;;;;;11.13;5.25;;;11.30;97.60;;;;;;5036964;28;20466;-84
2023/10/02 03:02:56;;;;;;;14.25;5.60;;;11.30;97.80;;;;;;5057681;28;20032;-84
2023/10/02 03:05:24;;;;;;;8.68;4.88;;;11.30;97.80;;;;;;5060662;28;20025;-85
2023/10/02 03:07:54;;;;;;;9.75;6.03;;;11.20;97.60;;;;;;5070935;28;20034;-85
2023/10/02 03:10:23;;;;;;;8.60;5.45;;;11.20;97.70;;;;;;5059605;28;20025;-84
2023/10/02 03:12:49;;;;;;;6.43;4.63;;;11.20;97.90;;;;;;5054407;28;20426;-83
2023/10/02 03:15:20;;;;;;;10.20;4.90;;;11.20;97.90;;;;;;5054439;28;20096;-84
2023/10/02 03:17:51;;;;;;;9.52;5.95;;;11.20;97.80;;;;;;5054613;28;20032;-84
2023/10/02 03:20:23;;;;;;;10.63;6.25;;;11.20;97.70;;;;;;5054465;28;20036;-84
2023/10/02 03:22:56;;;;;;;10.48;5.15;;;11.20;97.80;;;;;;5036835;28;20421;-84
2023/10/02 03:25:28;;;;;;;11.57;5.60;;;11.20;97.80;;;;;;5057011;28;20024;-85
2023/10/02 03:27:57;;;;;;;8.50;5.72;;;11.10;97.50;;;;;;5056141;28;20021;-83
2023/10/02 03:30:35;;;;;;;10.70;5.50;;;10.90;97.70;;;;;;5038508;28;20101;-82
2023/10/02 03:33:17;;;;;;;11.90;6.45;;;10.80;97.70;;;;;;5035058;28;20037;-84
2023/10/02 03:35:56;;;;;;;7.28;5.25;;;;;;;;;;5069192;28;20052;-83
2023/10/02 03:38:23;;;;;;;6.97;5.45;;;;;;;;;;5064467;28;20394;-83
2023/10/02 03:40:54;;;;;;;7.65;4.97;;;;;;;;;;5046340;28;20021;-82
2023/10/02 03:43:34;;;;;;;10.23;4.68;;;10.70;98.20;;;;;;5066755;28;20025;-85
2023/10/02 03:46:06;;;;;;;6.53;4.93;;;10.70;98.80;;;;;;5036563;28;20025;-85
2023/10/02 03:48:33;;;;;;;6.13;4.53;;;10.70;98.70;;;;;;5035967;28;20418;-84
2023/10/02 03:51:08;;;;;;;8.02;5.70;;;10.70;98.70;;;;;;5054095;28;20021;-85
2023/10/02 03:53:35;;;;;;;11.57;5.38;;;10.80;98.80;;;;;;5035737;28;20032;-84
2023/10/02 03:58:52;;;;;;;6.25;4.78;;;10.80;98.50;;;;;;5054209;28;20043;-84
2023/10/02 04:01:31;;;;;;;9.40;5.85;;;10.70;98.50;;;;;;5036821;28;20021;-84
2023/10/02 04:06:36;;;;;;;6.43;4.85;;;10.70;98.60;;;;;;5054726;28;20025;-85
2023/10/02 04:09:09;;;;;;;9.75;4.90;;;10.60;98.70;;;;;;5052658;28;20023;-84
2023/10/02 04:11:38;;;;;;;7.05;4.70;;;10.60;98.70;;;;;;5053961;28;20027;-85
2023/10/02 04:14:17;;;;;;;9.02;5.32;;;10.60;98.90;;;;;;5036059;28;20025;-86
2023/10/02 04:16:46;;;;;;;8.65;5.53;;;10.70;98.90;;;;;;5040206;28;20021;-84
2023/10/02 04:19:15;;;;;;;8.35;5.30;;;10.80;98.90;;;;;;5046783;28;20033;-86
2023/10/02 04:21:45;;;;;;;6.88;4.95;;;10.80;98.80;;;;;;5044206;28;20025;-86
2023/10/02 04:24:11;;;;;;;7.32;5.22;;;10.80;98.80;;;;;;5041216;28;20020;-87
2023/10/02 04:26:41;;;;;;;9.13;5.55;;;10.80;98.80;;;;;;5036831;28;20115;-87
2023/10/02 04:29:15;;;;;;;8.38;5.43;;;10.80;98.80;;;;;;5043863;28;20041;-85
2023/10/02 04:31:44;;;;;;;9.13;4.93;;;10.90;99.00;;;;;;5044547;28;20394;-86
2023/10/02 04:36:43;;;;;;;10.32;5.88;;;10.80;98.80;;;;;;5054605;28;20025;-85
2023/10/02 04:42:21;;;;;;;9.43;5.60;;;10.80;99.00;;;;;;5057956;28;20405;-83
2023/10/02 04:44:56;;;;;;;8.45;5.13;;;10.80;99.10;;;;;;5056129;28;20025;-84
2023/10/02 04:47:23;;;;;;;11.23;5.88;;;10.80;99.10;;;;;;5050768;28;20511;-86
2023/10/02 04:55:22;;;;;;;9.23;5.93;;;10.80;99.20;;;;;;5039852;28;20075;-86
2023/10/02 04:57:50;;;;;;;11.57;6.45;;;10.90;99.30;;;;;;5053783;28;20028;-87
2023/10/02 05:00:35;;;;;;;11.13;6.07;;;10.80;99.20;;;;;;5039998;28;20038;-85
2023/10/02 05:03:49;;;;;;;8.80;5.63;;;10.90;99.30;;;;;;5050895;28;20021;-84
2023/10/02 05:05:58;;;;;;;13.02;5.95;;;11.00;99.20;;;;;;5040467;28;20036;-86
2023/10/02 05:09:11;;;;;;;8.43;5.65;;;11.00;99.20;;;;;;5053929;28;20025;-83
2023/10/02 05:11:46;;;;;;;11.23;5.55;;;11.00;99.10;;;;;;5056558;28;20025;-85
2023/10/02 05:14:14;;;;;;;10.07;6.35;;;11.10;99.10;;;;;;5059996;28;20105;-88
2023/10/02 05:16:42;;;;;;;13.75;5.95;;;11.10;99.00;;;;;;5060756;28;20021;-87
2023/10/02 05:19:09;;;;;;;12.05;5.95;;;11.10;99.10;;;;;;5052573;28;20127;-88
2023/10/02 05:21:39;;;;;;;8.30;5.15;;;11.10;99.30;;;;;;5055453;28;20028;-85
2023/10/02 05:24:07;;;;;;;9.57;5.40;;;11.20;99.30;;;;;;5066454;28;20116;-85
2023/10/02 05:26:36;;;;;;;16.73;5.53;;;11.20;99.00;;;;;;5053314;28;20025;-85
2023/10/02 05:29:06;;;;;;;9.93;5.63;;;11.20;99.00;;;;;;5055312;28;20032;-85
2023/10/02 05:31:35;;;;;;;9.00;5.93;;;11.20;99.00;;;;;;5053386;28;20031;-87
2023/10/02 05:34:25;;;;;;;12.13;5.88;;;11.20;99.10;;;;;;5052735;28;20044;-86
2023/10/02 05:39:42;;;;;;;8.27;5.28;;;11.30;99.00;;;;;;5040600;28;20030;-84
2023/10/02 05:42:15;;;;;;;10.80;6.50;;;11.30;98.60;;;;;;5054014;28;20064;-86
2023/10/02 05:44:42;;;;;;;24.13;15.30;;;11.30;98.70;;;;;;5051138;28;20013;-85
2023/10/02 05:47:08;;;;;;;;;;;11.40;98.70;;;;;;5040190;28;20048;-86
2023/10/02 05:49:48;;;;;;;11.13;6.30;;;11.50;98.60;;;;;;5045415;28;19905;-84
2023/10/02 05:52:23;;;;;;;10.10;5.60;;;11.60;98.60;;;;;;5054577;28;20021;-88
2023/10/02 05:54:56;;;;;;;6.57;5.03;;;11.70;98.50;;;;;;5037473;28;20021;-84
2023/10/02 05:57:31;;;;;;;12.48;6.57;;;11.80;98.20;;;;;;5048259;28;20096;-85
2023/10/02 05:59:59;;;;;;;6.85;5.40;;;11.90;98.00;;;;;;5055269;28;20045;-84
2023/10/02 06:02:26;;;;;;;12.18;6.63;;;11.90;98.00;;;;;;5061995;28;20014;-89
2023/10/02 06:04:53;;;;;;;;;;;11.90;97.70;;;;;;5068199;28;20029;-85
2023/10/02 06:10:26;;;;;;;11.88;6.40;;;12.00;97.60;;;;;;5054603;28;20167;-88
2023/10/02 06:13:05;;;;;;;13.57;6.40;;;12.00;97.40;;;;;;5039883;28;20013;-85
2023/10/02 06:15:46;;;;;;;8.32;5.32;;;11.90;97.50;;;;;;5061675;28;20127;-86
2023/10/02 06:18:24;;;;;;;9.60;4.90;;;11.90;97.60;;;;;;5076323;28;20079;-86
2023/10/02 06:21:00;;;;;;;;;;;12.00;97.50;;;;;;5061055;28;20044;-88
2023/10/02 06:23:29;;;;;;;11.77;5.90;;;11.90;97.30;;;;;;5064013;28;19916;-85
2023/10/02 06:25:58;;;;;;;11.00;7.18;;;11.70;97.50;;;;;;5071298;28;20124;-84
2023/10/02 06:28:30;;;;;;;7.47;5.70;;;11.70;97.90;;;;;;5066999;28;20124;-86
2023/10/02 06:30:56;;;;;;;11.07;5.68;;;11.70;97.90;;;;;;5043929;28;20466;-87
2023/10/02 06:33:22;;;;;;;9.52;6.05;;;11.70;97.80;;;;;;5049127;28;20058;-87
2023/10/02 06:35:57;;;;;;;10.27;5.47;;;11.90;98.00;;;;;;5016934;28;20124;-86
2023/10/02 06:38:30;;;;;;;7.88;5.00;;;12.00;97.70;;;;;;5016601;28;20038;-89
2023/10/02 06:40:56;;;;;;;8.05;5.90;;;12.20;97.40;;;;;;5018670;28;20507;-88
2023/10/02 06:43:31;;;;;;;9.83;5.50;;;12.30;97.10;;;;;;5035942;28;20067;-86
2023/10/02 06:46:13;;;;;;;16.85;6.20;;;12.40;96.90;;;;;;5023991;28;20271;-87
2023/10/02 06:48:43;;;;;;;11.77;5.90;;;12.40;96.50;;;;;;5034932;28;20022;-87
2023/10/02 06:51:19;;;;;;;12.93;6.60;;;12.30;96.60;;;;;;5018846;28;20530;-88
2023/10/02 06:53:45;;;;;;;12.32;6.65;;;12.40;96.50;;;;;;5039572;28;20014;-86
2023/10/02 06:56:12;;;;;;;10.18;6.30;;;12.30;96.50;;;;;;5043350;28;20026;-87
2023/10/02 06:58:54;;;;;;;25.80;8.00;;;12.40;96.60;;;;;;5022680;28;20467;-87
2023/10/02 07:01:26;;;;;;;12.73;6.80;;;12.40;96.50;;;;;;5030473;28;20037;-90
2023/10/02 07:03:52;;;;;;;10.20;6.38;;;12.40;96.50;;;;;;5054314;28;20041;-87
2023/10/02 07:06:24;;;;;;;9.18;5.97;;;12.50;96.40;;;;;;5033053;28;20026;-88
2023/10/02 07:09:10;;;;;;;11.32;6.18;;;12.50;96.40;;;;;;5047077;28;20026;-86
2023/10/02 07:11:42;;;;;;;14.95;7.53;;;12.40;96.10;;;;;;5033466;28;20029;-87
2023/10/02 07:14:09;;;;;;;11.07;6.50;;;12.40;96.30;;;;;;5022943;28;20021;-89
2023/10/02 07:16:36;;;;;;;10.88;6.20;;;12.30;96.50;;;;;;5035652;28;20036;-86
2023/10/02 07:19:04;;;;;;;8.05;5.18;;;12.20;96.40;;;;;;5023266;28;20049;-87
2023/10/02 07:21:31;;;;;;;9.00;5.75;;;12.20;96.50;;;;;;5039826;28;20017;-87
2023/10/02 07:24:27;;;;;;;10.95;6.40;;;12.20;96.50;;;;;;5042531;28;20080;-87
2023/10/02 07:26:53;;;;;;;12.07;5.63;;;12.20;96.50;;;;;;5023522;28;20069;-86
2023/10/02 07:29:19;;;;;;;8.60;5.32;;;12.10;96.80;;;;;;5008708;28;20026;-86
2023/10/02 07:31:45;;;;;;;13.82;6.72;;;12.10;97.00;;;;;;5034636;28;20395;-83
2023/10/02 07:34:15;;;;;;;13.98;6.63;;;12.10;97.10;;;;;;5041590;28;20071;-85
2023/10/02 07:36:44;;;;;;;14.43;6.28;;;12.00;97.30;;;;;;5047857;28;20120;-91
2023/10/02 07:42:04;;;;;;;10.55;5.63;;;11.90;97.50;;;;;;5060316;28;20028;-90
2023/10/02 07:44:39;;;;;;;11.25;5.55;;;11.90;97.40;;;;;;5061249;28;20116;-91
2023/10/02 07:47:19;;;;;;;10.23;5.35;;;11.90;97.50;;;;;;5047046;28;20108;-93
2023/10/02 07:49:48;;;;;;;10.38;6.57;;;12.00;97.40;;;;;;5065006;28;20025;-94
2023/10/02 07:52:30;;;;;;;9.25;5.43;;;12.10;97.40;;;;;;5035435;28;20026;-89
2023/10/02 07:54:59;;;;;;;7.97;4.88;;;12.10;97.30;;;;;;5033936;28;20043;-84
2023/10/02 07:57:36;;;;;;;9.38;6.05;;;12.00;97.20;;;;;;5032660;28;20095;-86
2023/10/02 08:00:33;;;;;;;10.03;6.13;;;12.00;97.50;;;;;;5048817;28;20502;-88
2023/10/02 08:02:55;;;;;;;8.45;5.00;;;11.90;97.70;;;;;;5054685;28;20021;-89
2023/10/02 08:05:23;;;;;;;7.43;5.03;;;11.90;97.90;;;;;;5037021;28;20478;-88
2023/10/02 08:08:08;;;;;;;9.77;4.63;;;11.90;98.00;;;;;;5054706;28;20066;-87
2023/10/02 08:10:54;;;;;;;7.65;4.82;;;11.80;98.00;;;;;;5039118;28;20424;-91
2023/10/02 08:13:32;;;;;;;10.68;7.45;;;11.80;98.10;;;;;;5066852;28;20024;-88
2023/10/02 08:16:15;;;;;;;8.95;5.05;;;11.80;98.30;;;;;;5033329;28;20383;-86
2023/10/02 08:18:58;;;;;;;10.98;4.78;;;11.90;98.30;;;;;;5055007;28;20084;-90
2023/10/02 08:21:35;;;;;;;10.73;4.97;;;11.90;98.20;;;;;;5036974;28;20102;-87
2023/10/02 08:24:06;;;;;;;14.03;6.40;;;11.80;97.80;;;;;;5045188;28;20029;-89
2023/10/02 08:26:39;;;;;;;7.45;3.80;;;11.70;98.00;;;;;;5061599;28;20281;-87
2023/10/02 08:29:09;;;;;;;6.55;3.75;;;11.70;98.20;;;;;;5044654;28;20036;-89
2023/10/02 08:31:42;;;;;;;5.28;3.35;;;11.60;98.20;;;;;;5037547;28;20113;-88
2023/10/02 08:34:13;;;;;;;7.47;3.78;;;11.70;98.40;;;;;;5038028;28;20494;-89
2023/10/02 08:36:40;;;;;;;5.75;2.83;;;11.90;98.60;;;;;;5035559;28;20025;-89
2023/10/02 08:39:11;;;;;;;4.38;2.75;;;12.30;98.10;;;;;;5038045;28;20406;-88
2023/10/02 08:41:47;;;;;;;6.97;3.08;;;12.80;97.10;;;;;;5024889;28;20023;-89
2023/10/02 08:44:22;;;;;;;5.18;3.20;;;13.30;96.10;;;;;;5039109;28;20059;-87
2023/10/02 08:46:48;;;;;;;3.65;1.90;;;13.60;94.70;;;;;;5056704;28;20025;-90
2023/10/02 08:49:30;;;;;;;3.42;1.92;;;13.70;93.70;;;;;;5034558;28;20483;-88
2023/10/02 08:51:56;;;;;;;5.63;2.55;;;13.70;93.60;;;;;;5051832;28;20048;-87
2023/10/02 08:54:27;;;;;;;3.53;2.72;;;13.80;93.30;;;;;;5060427;28;20025;-87
2023/10/02 08:57:10;;;;;;;12.32;6.53;;;13.80;93.10;;;;;;5061904;28;20013;-90
2023/10/02 08:59:40;;;;;;;4.30;2.20;;;13.80;92.90;;;;;;5050977;28;20032;-87
2023/10/02 09:02:13;;;;;;;4.78;2.67;;;13.70;92.60;;;;;;5051194;28;20453;-89
2023/10/02 09:04:40;;;;;;;4.45;2.78;;;13.60;92.80;;;;;;5052477;28;20017;-91
2023/10/02 09:07:21;;;;;;;4.13;2.63;;;13.50;93.00;;;;;;5051387;28;20079;-86
2023/10/02 09:09:54;;;;;;;5.82;2.78;;;13.50;93.20;;;;;;5048915;28;20029;-88
2023/10/02 09:12:21;;;;;;;4.88;2.40;;;13.40;93.30;;;;;;5031762;28;20033;-87
2023/10/02 09:14:51;;;;;;;5.82;2.85;;;13.30;93.30;;;;;;5046594;28;20032;-88
2023/10/02 09:17:20;;;;;;;4.60;2.53;;;13.30;93.40;;;;;;5040667;28;20026;-87
2023/10/02 09:19:53;;;;;;;9.07;3.20;;;13.20;93.60;;;;;;5051089;28;20037;-88
2023/10/02 09:22:21;;;;;;;5.78;3.10;;;13.20;93.70;;;;;;5045286;28;20021;-89
2023/10/02 09:24:57;;;;;;;5.53;3.95;;;13.20;93.90;;;;;;5046727;28;20021;-86
2023/10/02 09:27:27;;;;;;;2.78;2.40;;;13.20;93.90;;;;;;5063114;28;20044;-86
2023/10/02 09:32:49;;;;;;;5.15;2.90;;;13.20;94.10;;;;;;5042731;28;20094;-86
2023/10/02 09:35:29;;;;;;;5.95;3.65;;;13.20;94.40;;;;;;5055653;28;20079;-87
2023/10/02 09:38:10;;;;;;;4.60;2.65;;;13.30;94.20;;;;;;5042553;28;20079;-86
2023/10/02 09:43:33;;;;;;;5.03;2.80;;;13.40;94.10;;;;;;5040486;28;20540;-86
2023/10/02 09:46:06;;;;;;;2.97;2.42;;;13.50;93.90;;;;;;5051907;28;20024;-83
2023/10/02 09:51:26;;;;;;;3.85;2.33;;;13.60;93.80;;;;;;5040142;28;20195;-90
2023/10/02 09:54:28;;;;;;;5.28;2.40;;;13.90;93.60;;;;;;5052427;28;20013;-88
2023/10/02 09:57:11;;;;;;;4.45;2.40;;;14.30;93.40;;;;;;5049031;28;20025;-86
2023/10/02 09:59:48;;;;;;;4.80;2.00;;;14.80;92.30;;;;;;5046146;28;20203;-87
2023/10/02 10:05:00;;;;;;;5.05;2.55;;;14.80;91.10;;;;;;5049084;28;20173;-89
2023/10/02 10:10:49;;;;;;;4.03;2.60;;;14.40;91.20;;;;;;5036510;28;20048;-88
2023/10/02 10:13:32;;;;;;;6.93;2.85;;;14.20;91.60;;;;;;5044880;28;20052;-85
2023/10/02 10:16:19;;;;;;;4.35;2.60;;;14.10;92.10;;;;;;5037937;28;20445;-87
2023/10/02 10:22:04;;;;;;;3.40;2.28;;;14.50;91.80;;;;;;5043449;28;20032;-85
2023/10/02 10:24:51;;;;;;;4.20;2.47;;;14.50;91.60;;;;;;5050911;28;20477;-85
2023/10/02 10:27:41;;;;;;;2.30;1.85;;;14.60;91.30;;;;;;5056698;28;20036;-89
2023/10/02 10:30:27;;;;;;;6.78;2.67;;;14.40;91.50;;;;;;5046019;28;20045;-86
2023/10/02 10:35:48;;;;;;;4.05;2.35;;;14.60;91.20;;;;;;5061056;28;20398;-88
2023/10/02 10:38:26;;;;;;;5.68;2.58;;;14.60;90.90;;;;;;5056890;28;20023;-89
2023/10/02 10:41:00;;;;;;;4.28;2.08;;;14.70;91.00;;;;;;5041475;28;20031;-93
2023/10/02 10:43:43;;;;;;;4.13;2.47;;;14.80;90.50;;;;;;5049387;28;20092;-89
2023/10/02 10:46:19;;;;;;;3.08;2.20;;;14.90;90.40;;;;;;5070009;28;20033;-86
2023/10/02 10:48:53;;;;;;;4.18;2.53;;;14.90;90.00;;;;;;5047518;28;20076;-87
2023/10/02 10:51:20;;;;;;;4.13;1.80;;;14.90;89.80;;;;;;5050740;28;20020;-88
2023/10/02 10:54:00;;;;;;;2.78;1.95;;;14.80;90.10;;;;;;5057138;28;20350;-89
2023/10/02 10:56:27;;;;;;;3.53;2.13;;;14.90;90.20;;;;;;5039392;28;20418;-89
2023/10/02 10:59:13;;;;;;;4.05;2.13;;;15.20;90.00;;;;;;5067173;28;20017;-95
2023/10/02 11:02:09;;;;;;;4.22;2.70;;;15.30;89.10;;;;;;5033475;28;20060;-91
2023/10/02 11:04:39;;;;;;;5.32;2.78;;;15.60;88.90;;;;;;5067824;28;20051;-90
2023/10/02 11:07:19;;;;;;;4.60;2.53;;;15.90;87.80;;;;;;5058602;28;20094;-86
2023/10/02 11:10:14;;;;;;;3.25;2.50;;;16.00;87.00;;;;;;5035508;28;20049;-89
2023/10/02 11:12:56;;;;;;;5.90;2.92;;;16.00;85.90;;;;;;5056256;28;20039;-90
2023/10/02 11:18:20;;;;;;;9.52;2.65;;;15.80;85.10;;;;;;5062582;28;20035;-87
2023/10/02 11:20:50;;;;;;;7.68;4.70;;;15.80;85.20;;;;;;5057216;28;20451;-85
2023/10/02 11:23:23;;;;;;;5.47;3.13;;;15.70;85.40;;;;;;5057933;28;20013;-86
2023/10/02 11:25:56;;;;;;;5.78;2.83;;;15.70;85.40;;;;;;5041764;28;20059;-87
2023/10/02 11:28:31;;;;;;;6.63;2.47;;;15.60;85.20;;;;;;5056871;28;20025;-89
2023/10/02 11:31:33;;;;;;;6.35;2.88;;;15.40;85.90;;;;;;5036629;28;20473;-90
2023/10/02 11:34:07;;;;;;;4.07;2.35;;;15.20;85.90;;;;;;4947532;28;20051;-87
2023/10/02 11:36:50;;;;;;;9.32;3.08;;;15.10;86.50;;;;;;4959587;28;20480;-89
2023/10/02 11:39:16;;;;;;;5.35;2.38;;;15.00;86.80;;;;;;4967208;28;20090;-86
2023/10/02 11:41:46;;;;;;;3.60;2.30;;;15.00;86.80;;;;;;4978643;28;20078;-89
2023/10/02 11:44:12;;;;;;;4.60;2.60;;;15.00;86.70;;;;;;4966340;28;20055;-87
2023/10/02 11:46:44;;;;;;;5.13;2.43;;;15.10;86.70;;;;;;4989279;28;20023;-87
2023/10/02 11:49:12;;;;;;;4.70;2.92;;;15.00;86.70;;;;;;4986599;28;20038;-87
2023/10/02 11:51:43;;;;;;;9.68;5.90;;;15.10;87.00;;;;;;4983491;28;20022;-87
2023/10/02 11:54:11;;;;;;;5.00;2.60;;;15.30;87.00;;;;;;4984842;28;20133;-88
2023/10/02 11:56:38;;;;;;;4.75;2.60;;;15.40;86.60;;;;;;4982874;28;20023;-87
2023/10/02 11:59:04;;;;;;;5.93;2.22;;;15.50;85.60;;;;;;4960074;28;20027;-87
2023/10/02 12:01:30;;;;;;;7.80;2.63;;;15.50;84.60;;;;;;4973118;28;20536;-86
2023/10/02 12:03:59;;;;;;;5.75;2.30;;;15.50;85.20;;;;;;4957572;28;20049;-87
2023/10/02 12:06:27;;;;;;;6.35;2.40;;;15.30;84.60;;;;;;4964628;28;20063;-88
2023/10/02 12:08:58;;;;;;;6.38;2.83;;;15.30;84.80;;;;;;5046044;28;20025;-86
2023/10/02 12:11:24;;;;;;;4.57;2.42;;;15.20;85.00;;;;;;5054307;28;20021;-86
2023/10/02 12:13:51;;;;;;;5.70;2.53;;;15.20;85.70;;;;;;5053739;28;20056;-85
2023/10/02 12:16:19;;;;;;;5.35;2.90;;;15.20;85.80;;;;;;5036064;28;20095;-87
2023/10/02 12:18:45;;;;;;;5.07;2.97;;;15.20;85.40;;;;;;5052867;28;20025;-86
2023/10/02 12:21:11;;;;;;;5.65;2.88;;;15.30;85.10;;;;;;5054646;28;20025;-87
2023/10/02 12:23:44;;;;;;;5.97;2.58;;;15.30;85.00;;;;;;5055001;28;20021;-88
2023/10/02 12:26:14;;;;;;;3.95;2.53;;;15.20;84.90;;;;;;5043358;28;20025;-88
2023/10/02 12:28:41;;;;;;;5.68;2.60;;;15.10;85.00;;;;;;5037379;28;20177;-86
2023/10/02 12:31:14;;;;;;;4.13;2.30;;;15.10;85.40;;;;;;5055798;28;20036;-86
2023/10/02 12:33:44;;;;;;;5.57;2.90;;;15.00;85.30;;;;;;5038876;28;20284;-87
2023/10/02 12:36:18;;;;;;;7.68;3.33;;;15.10;85.50;;;;;;5049790;28;20363;-86
2023/10/02 12:38:48;;;;;;;7.43;2.88;;;15.20;85.40;;;;;;5054023;28;20041;-88
2023/10/02 12:41:24;;;;;;;6.10;2.75;;;15.20;85.40;;;;;;5034107;28;20039;-89
2023/10/02 12:44:02;;;;;;;3.58;2.58;;;15.20;85.00;;;;;;5052600;28;20541;-89
2023/10/02 12:46:30;;;;;;;6.47;3.17;;;15.10;85.00;;;;;;5037288;28;20021;-88
2023/10/02 12:48:57;;;;;;;;;;;14.90;85.20;;;;;;5052126;28;20021;-89
2023/10/02 12:51:24;;;;;;;6.22;3.60;;;14.80;85.70;;;;;;5041732;28;19927;-89
2023/10/02 12:53:50;;;;;;;4.55;2.83;;;14.80;86.00;;;;;;5037255;28;20022;-89
2023/10/02 12:56:21;;;;;;;5.65;2.53;;;14.80;86.20;;;;;;5055432;28;20039;-85
2023/10/02 12:58:49;;;;;;;4.47;2.90;;;14.80;86.30;;;;;;5046830;28;20018;-87
2023/10/02 13:01:16;;;;;;;4.63;2.80;;;14.90;86.30;;;;;;5035547;28;20463;-86
2023/10/02 13:03:42;;;;;;;6.25;2.97;;;15.00;85.90;;;;;;5054203;28;20083;-90
2023/10/02 13:06:12;;;;;;;4.65;2.92;;;15.00;85.50;;;;;;5054441;28;20021;-89
2023/10/02 13:08:44;;;;;;;9.70;3.03;;;14.90;85.80;;;;;;5038514;28;20080;-91
2023/10/02 13:11:12;;;;;;;8.05;3.25;;;15.00;86.00;;;;;;5050755;28;20101;-89
2023/10/02 13:13:44;;;;;;;7.18;3.08;;;15.00;86.00;;;;;;5041699;28;20025;-94
2023/10/02 13:16:13;;;;;;;7.75;3.35;;;14.90;86.10;;;;;;5041661;28;20389;-94
2023/10/02 13:18:40;;;;;;;10.10;3.70;;;14.90;86.60;;;;;;5036099;28;20028;-85
2023/10/02 13:21:19;;;;;;;7.95;3.08;;;14.80;86.60;;;;;;5052307;28;20071;-85
2023/10/02 13:23:45;;;;;;;7.70;4.93;;;14.80;86.80;;;;;;5033362;28;20022;-85
2023/10/02 13:26:16;;;;;;;7.85;3.60;;;14.80;87.00;;;;;;5053160;28;20021;-93
2023/10/02 13:28:54;;;;;;;7.60;3.95;;;14.90;87.00;;;;;;5040264;28;20025;-91
2023/10/02 13:31:20;;;;;;;11.60;3.67;;;14.90;87.00;;;;;;5050750;28;20028;-90
2023/10/02 13:33:53;;;;;;;5.45;3.58;;;14.90;87.20;;;;;;5041981;28;20052;-88
2023/10/02 13:36:22;;;;;;;16.45;8.93;;;14.90;86.60;;;;;;5058779;28;20027;-91
2023/10/02 13:39:04;;;;;;;12.95;4.70;;;14.90;86.60;;;;;;5050610;28;20044;-87
2023/10/02 13:41:31;;;;;;;9.73;2.60;;;14.90;87.10;;;;;;5038787;28;20055;-86
2023/10/02 13:43:59;;;;;;;10.93;3.47;;;14.90;86.70;;;;;;5022972;28;20033;-86
2023/10/02 13:46:25;;;;;;;5.25;2.50;;;14.90;86.30;;;;;;5046918;28;20389;-88
2023/10/02 13:48:52;;;;;;;4.90;2.60;;;14.70;85.80;;;;;;5037587;28;20116;-85
2023/10/02 13:51:19;;;;;;;3.83;2.33;;;14.60;86.10;;;;;;5052562;28;20056;-86
2023/10/02 13:53:46;;;;;;;4.47;2.80;;;14.40;86.50;;;;;;5035628;28;20025;-83
2023/10/02 13:56:17;;;;;;;6.25;3.28;;;14.30;87.10;;;;;;5046829;28;20017;-86
2023/10/02 13:58:50;;;;;;;6.03;3.03;;;14.20;87.60;;;;;;5055370;28;20115;-84
2023/10/02 14:01:20;;;;;;;9.10;3.30;;;14.10;87.90;;;;;;5042827;28;20116;-84
2023/10/02 14:03:49;;;;;;;6.47;3.00;;;14.10;88.30;;;;;;5035500;28;20021;-85
2023/10/02 14:06:18;;;;;;;12.13;3.53;;;14.10;88.60;;;;;;5035325;28;20038;-85
2023/10/02 14:08:44;;;;;;;4.57;3.22;;;14.10;88.60;;;;;;5043119;28;20029;-86